Time;durP1;ratioP1;P1;durP2;ratioP2;P2;SDS_P1;SDS_P2;PMS_P1;PMS_P2;Temp;Humidity;BMP_temperature;BMP_pressure;BME280_temperature;BME280_humidity;BME280_pressure;Samples;Min_cycle;Max_cycle;Signal;HPM_P1;HPM_P2
2023/12/06 00:01:11;;;;;;;44.30;30.13;;;;;;;1.54;100.00;101058.38;6065676;23;20011;-89
2023/12/06 00:07:51;;;;;;;45.42;31.70;;;;;;;1.56;100.00;101054.06;6065978;23;20061;-88
2023/12/06 00:10:37;;;;;;;44.35;30.45;;;;;;;1.58;100.00;101060.00;6065995;23;20011;-89
2023/12/06 00:13:11;;;;;;;45.75;30.75;;;;;;;0.97;100.00;100964.63;6066806;23;20445;-89
2023/12/06 00:15:45;;;;;;;46.55;29.95;;;;;;;0.01;100.00;100815.03;6068785;23;20077;-87
2023/12/06 00:18:11;;;;;;;46.55;31.52;;;;;;;0.74;100.00;100934.63;6069592;23;20007;-88
2023/12/06 00:20:36;;;;;;;46.10;31.67;;;;;;;0.38;100.00;100883.66;6065771;23;20018;-89
2023/12/06 00:23:02;;;;;;;46.45;31.20;;;;;;;1.22;100.00;101015.81;6065403;23;20017;-90
2023/12/06 00:25:31;;;;;;;46.83;31.30;;;;;;;-0.05;100.00;100815.13;6115047;23;20025;-89
2023/12/06 00:27:56;;;;;;;47.65;30.40;;;;;;;1.05;100.00;100991.56;6126297;23;20471;-88
2023/12/06 00:30:31;;;;;;;47.22;31.55;;;;;;;-0.06;100.00;100811.75;6126125;23;20005;-89
2023/12/06 00:32:59;;;;;;;45.78;30.58;;;;;;;1.03;100.00;100988.22;6124658;23;20340;-88
2023/12/06 00:35:35;;;;;;;48.30;32.03;;;;;;;0.94;100.00;100985.88;6124093;23;20010;-88
2023/12/06 00:38:00;;;;;;;47.92;30.85;;;;;;;1.57;100.00;101088.84;6126298;23;20002;-87
2023/12/06 00:40:25;;;;;;;46.95;30.35;;;;;;;0.99;100.00;100993.44;6126303;23;20064;-87
2023/12/06 00:42:51;;;;;;;48.08;30.95;;;;;;;1.58;100.00;101093.09;6126309;23;20009;-88
2023/12/06 00:45:27;;;;;;;50.05;31.13;;;;;;;0.72;100.00;100951.59;6124388;23;20021;-89
2023/12/06 00:47:52;;;;;;;47.50;31.23;;;;;;;1.25;100.00;101053.91;6125861;23;20029;-86
2023/12/06 00:51:10;;;;;;;48.70;30.85;;;;;;;1.60;100.00;101102.34;6125828;23;20006;-85
2023/12/06 00:53:36;;;;;;;48.72;31.25;;;;;;;0.19;100.00;100878.13;6126106;23;20006;-88
2023/12/06 00:56:42;;;;;;;47.85;30.85;;;;;;;1.65;100.00;101102.25;6125868;23;20002;-87
2023/12/06 01:02:49;;;;;;;46.17;30.38;;;;;;;0.08;100.00;100861.41;6126010;23;20021;-89
2023/12/06 01:05:29;;;;;;;49.22;30.58;;;;;;;0.48;100.00;100912.28;6064839;23;20007;-88
2023/12/06 01:08:17;;;;;;;44.60;29.08;;;;;;;1.68;100.00;101114.91;6065633;23;20082;-89
2023/12/06 01:10:45;;;;;;;45.97;29.20;;;;;;;1.11;100.00;101028.75;6065133;23;20055;-88
2023/12/06 01:13:19;;;;;;;46.33;29.33;;;;;;;1.26;100.00;101063.22;6065405;23;20033;-88
2023/12/06 01:19:18;;;;;;;47.53;30.05;;;;;;;0.75;100.00;100972.69;6065213;23;20054;-89
2023/12/06 01:21:43;;;;;;;47.00;29.02;;;;;;;1.09;100.00;101038.97;6067760;23;20007;-83
2023/12/06 01:27:50;;;;;;;44.35;29.15;;;;;;;0.20;100.00;100905.22;6008176;23;20077;-82
2023/12/06 01:37:56;;;;;;;41.72;27.50;;;;;;;1.68;100.00;101153.09;6008853;23;20020;-88
2023/12/06 01:40:36;;;;;;;43.50;28.20;;;;;;;1.14;100.00;101069.38;6008263;23;20061;-87
2023/12/06 01:43:14;;;;;;;42.53;28.67;;;;;;;1.66;100.00;101160.75;6094170;23;20007;-86
2023/12/06 01:45:39;;;;;;;44.15;29.63;;;;;;;1.50;100.00;101133.13;6125023;23;20467;-80
2023/12/06 01:51:27;;;;;;;39.83;26.70;;;;;;;0.31;100.00;100942.25;6126735;23;20024;-82
2023/12/06 01:53:57;;;;;;;42.10;27.55;;;;;;;0.93;100.00;101044.41;6125184;23;20085;-83
2023/12/06 02:02:30;;;;;;;41.85;28.33;;;;;;;0.29;100.00;100962.59;6125156;23;20087;-82
2023/12/06 02:05:23;;;;;;;39.95;27.25;;;;;;;1.65;100.00;101181.97;6125913;23;20088;-84
2023/12/06 02:11:10;;;;;;;38.27;26.70;;;;;;;0.24;100.00;100944.91;6124982;23;20089;-81
2023/12/06 02:13:54;;;;;;;40.70;26.90;;;;;;;0.19;100.00;100938.22;6124681;23;20009;-87
2023/12/06 02:16:42;;;;;;;36.85;26.30;;;;;;;0.06;100.00;100921.56;6114488;23;20425;-83
2023/12/06 02:19:27;;;;;;;38.15;27.45;;;;;;;1.63;100.00;101187.97;6098144;23;20002;-82
2023/12/06 02:21:59;;;;;;;38.55;26.63;;;;;;;1.01;100.00;101093.41;6098227;23;20007;-88
2023/12/06 02:24:29;;;;;;;37.92;27.00;;;;;;;1.03;100.00;101089.13;6098496;23;20014;-88
2023/12/06 02:26:56;;;;;;;37.58;27.13;;;;;;;0.01;100.00;100944.50;6143335;23;20010;-87
2023/12/06 02:29:24;;;;;;;36.20;26.40;;;;;;;0.47;100.00;100999.50;6156814;23;20371;-88
2023/12/06 02:31:56;;;;;;;34.28;25.17;;;;;;;0.21;100.00;100955.13;6156684;23;20009;-88
2023/12/06 02:37:23;;;;;;;35.58;25.13;;;;;;;0.11;100.00;100945.16;6156851;23;19916;-82
2023/12/06 02:43:09;;;;;;;;;;;;;;;1.65;100.00;101188.78;6156276;23;20470;-87
2023/12/06 02:45:34;;;;;;;35.20;24.83;;;;;;;0.79;100.00;101058.22;6130290;23;19909;-83
2023/12/06 02:48:35;;;;;;;34.78;24.25;;;;;;;1.60;100.00;101186.34;6156298;23;20008;-87
2023/12/06 02:51:12;;;;;;;34.00;24.75;;;;;;;0.10;100.00;100940.94;6156679;23;20378;-82
2023/12/06 02:53:49;;;;;;;35.35;25.85;;;;;;;0.50;100.00;101009.66;6156342;23;20001;-87
2023/12/06 02:56:17;;;;;;;33.05;24.90;;;;;;;0.64;100.00;101037.31;6156540;23;20009;-81
2023/12/06 02:58:42;;;;;;;31.77;24.08;;;;;;;1.01;100.00;101091.69;6130244;23;20039;-87
2023/12/06 03:01:08;;;;;;;31.65;23.95;;;;;;;1.64;100.00;101187.94;6156449;23;20005;-87
2023/12/06 03:06:55;;;;;;;32.50;24.20;;;;;;;0.16;100.00;100951.81;6156595;23;20028;-87
2023/12/06 03:09:21;;;;;;;31.75;23.77;;;;;;;1.16;100.00;101103.25;6156410;23;20100;-82
2023/12/06 03:11:54;;;;;;;33.58;24.75;;;;;;;1.67;100.00;101189.59;6130052;23;20001;-88
2023/12/06 03:14:42;;;;;;;29.98;22.77;;;;;;;1.74;100.00;101186.06;6153865;23;20451;-88
2023/12/06 03:17:10;;;;;;;31.67;23.02;;;;;;;1.35;100.00;101131.72;6130121;23;20012;-84
2023/12/06 03:19:37;;;;;;;32.33;23.65;;;;;;;0.77;100.00;101034.50;6156836;23;20336;-81
2023/12/06 03:22:03;;;;;;;29.90;22.35;;;;;;;0.74;100.00;101031.19;6157077;23;20009;-88
2023/12/06 03:24:28;;;;;;;30.92;23.08;;;;;;;1.64;100.00;101182.84;6157420;23;20009;-82
2023/12/06 03:26:54;;;;;;;33.47;24.08;;;;;;;0.49;100.00;100996.09;6154429;23;20100;-82
2023/12/06 03:29:19;;;;;;;31.33;24.23;;;;;;;0.68;100.00;101021.13;6153499;23;20045;-83
2023/12/06 03:31:47;;;;;;;30.17;22.58;;;;;;;1.81;100.00;101212.25;6156047;23;20028;-86
2023/12/06 03:34:13;;;;;;;30.65;23.05;;;;;;;1.34;100.00;101132.59;6156096;23;20006;-86
2023/12/06 03:36:38;;;;;;;31.75;23.45;;;;;;;1.67;100.00;101180.28;6155832;23;20431;-85
2023/12/06 03:39:04;;;;;;;28.08;22.65;;;;;;;1.78;100.00;101197.88;6156240;23;20056;-82
2023/12/06 03:41:29;;;;;;;27.30;22.52;;;;;;;1.90;100.00;101210.34;6130254;23;20006;-84
2023/12/06 03:43:54;;;;;;;28.55;22.65;;;;;;;1.42;100.00;101129.03;6155592;23;20069;-84
2023/12/06 03:46:20;;;;;;;29.65;22.45;;;;;;;1.95;100.00;101216.16;6155782;23;20011;-84
2023/12/06 03:48:45;;;;;;;29.75;22.27;;;;;;;1.77;100.00;101187.69;6156216;23;20002;-88
2023/12/06 03:51:10;;;;;;;28.58;21.50;;;;;;;1.98;100.00;101217.81;6156146;23;20009;-86
2023/12/06 03:53:38;;;;;;;27.33;21.65;;;;;;;1.67;100.00;101176.84;6155975;23;20037;-83
2023/12/06 03:56:04;;;;;;;27.17;21.85;;;;;;;1.63;100.00;101165.06;6129084;23;20328;-87
2023/12/06 03:58:30;;;;;;;28.73;21.85;;;;;;;1.89;100.00;101205.28;6155880;23;20067;-85
2023/12/06 04:00:56;;;;;;;29.02;22.08;;;;;;;1.84;100.00;101196.88;6129861;23;20037;-82
2023/12/06 04:03:21;;;;;;;30.73;22.73;;;;;;;1.86;100.00;101198.53;6155899;23;20001;-84
2023/12/06 04:05:51;;;;;;;27.02;21.30;;;;;;;2.09;100.00;101230.31;6155500;23;20006;-88
2023/12/06 04:08:17;;;;;;;27.38;21.77;;;;;;;1.56;100.00;101151.63;6156055;23;20044;-88
2023/12/06 04:10:42;;;;;;;28.02;22.02;;;;;;;1.81;100.00;101187.59;6156010;23;20001;-90
2023/12/06 04:13:07;;;;;;;29.50;21.75;;;;;;;1.83;100.00;101195.22;6156205;23;20002;-89
2023/12/06 04:15:33;;;;;;;28.15;22.35;;;;;;;1.09;100.00;101073.75;6155532;23;20006;-84
2023/12/06 04:17:58;;;;;;;28.50;22.00;;;;;;;2.11;100.00;101241.31;6156149;23;20060;-88
2023/12/06 04:20:23;;;;;;;26.75;21.27;;;;;;;2.13;100.00;101244.66;6155223;23;20028;-90
2023/12/06 04:22:55;;;;;;;29.17;22.17;;;;;;;2.12;100.00;101243.00;6128244;23;20021;-88
2023/12/06 04:25:21;;;;;;;27.90;21.60;;;;;;;1.18;100.00;101091.38;6155521;23;20309;-88
2023/12/06 04:27:55;;;;;;;26.70;21.83;;;;;;;2.14;100.00;101243.78;6155928;23;20006;-88
2023/12/06 04:30:20;;;;;;;26.67;21.50;;;;;;;2.08;100.00;101237.13;6155285;23;20024;-86
2023/12/06 04:32:45;;;;;;;29.02;22.17;;;;;;;1.70;100.00;101182.75;6156194;23;20006;-88
2023/12/06 04:35:11;;;;;;;29.88;23.13;;;;;;;2.03;100.00;101233.84;6155465;23;20008;-90
2023/12/06 04:37:36;;;;;;;27.90;22.70;;;;;;;1.88;100.00;101216.34;6156158;23;20297;-88
2023/12/06 04:40:02;;;;;;;29.23;22.65;;;;;;;2.15;100.00;101256.50;6155237;23;20009;-89
2023/12/06 04:42:27;;;;;;;30.02;22.52;;;;;;;2.16;100.00;101259.88;6155493;23;20006;-89
2023/12/06 04:44:52;;;;;;;29.33;23.05;;;;;;;2.16;100.00;101257.31;6155298;23;20005;-89
2023/12/06 04:47:25;;;;;;;29.27;21.50;;;;;;;2.06;100.00;101245.66;6155373;23;20404;-88
2023/12/06 04:49:50;;;;;;;30.02;22.13;;;;;;;2.15;100.00;101261.59;6155462;23;20017;-87
2023/12/06 04:52:16;;;;;;;26.98;21.38;;;;;;;1.81;100.00;101204.59;6155629;23;20412;-87
2023/12/06 04:54:41;;;;;;;29.67;21.42;;;;;;;2.16;100.00;101259.88;6156338;23;20029;-91
2023/12/06 04:57:06;;;;;;;29.92;22.52;;;;;;;2.17;100.00;101259.88;6157281;23;20013;-90
2023/12/06 04:59:31;;;;;;;27.95;21.55;;;;;;;1.95;100.00;101223.78;6155468;23;20001;-90
2023/12/06 05:01:57;;;;;;;29.48;22.88;;;;;;;2.06;100.00;101246.50;6129139;23;20013;-89
2023/12/06 05:04:23;;;;;;;29.10;21.73;;;;;;;1.82;100.00;101201.19;6155101;23;20013;-87
2023/12/06 05:06:49;;;;;;;27.58;21.38;;;;;;;1.96;100.00;101230.56;6155480;23;20005;-90
2023/12/06 05:09:14;;;;;;;32.15;22.27;;;;;;;2.08;100.00;101251.59;6155225;23;20440;-88
2023/12/06 05:11:45;;;;;;;27.65;22.00;;;;;;;2.03;100.00;101241.47;6155608;23;20039;-87
2023/12/06 05:20:10;;;;;;;28.02;22.02;;;;;;;0.81;100.00;101059.03;6154711;23;20044;-88
2023/12/06 05:22:47;;;;;;;27.20;21.98;;;;;;;2.16;100.00;101268.34;6155495;23;20073;-88
2023/12/06 05:25:21;;;;;;;28.05;21.73;;;;;;;1.65;100.00;101184.53;6155081;23;20331;-89
2023/12/06 05:27:47;;;;;;;30.33;23.25;;;;;;;1.30;100.00;101119.09;6155429;23;20327;-87
2023/12/06 05:30:27;;;;;;;28.42;21.52;;;;;;;1.29;100.00;101117.44;6154785;23;20002;-87
2023/12/06 05:32:54;;;;;;;31.65;22.45;;;;;;;2.32;100.00;101288.44;6155241;23;20412;-88
2023/12/06 05:35:20;;;;;;;28.38;21.83;;;;;;;1.72;100.00;101188.63;6154871;23;20001;-90
2023/12/06 05:37:46;;;;;;;28.40;22.20;;;;;;;2.09;100.00;101251.53;6155329;23;20012;-89
2023/12/06 05:40:14;;;;;;;31.08;22.70;;;;;;;2.20;100.00;101272.53;6155327;23;20006;-88
2023/12/06 05:42:39;;;;;;;29.27;22.52;;;;;;;2.32;100.00;101289.25;6155408;23;20330;-87
2023/12/06 05:45:14;;;;;;;30.27;22.40;;;;;;;2.39;100.00;101300.16;6154837;23;20037;-86
2023/12/06 05:47:39;;;;;;;28.85;22.38;;;;;;;2.36;100.00;101306.19;6155282;23;20029;-87
2023/12/06 05:50:06;;;;;;;29.25;21.80;;;;;;;2.37;100.00;101302.75;6155112;23;20056;-89
2023/12/06 05:52:31;;;;;;;33.38;23.98;;;;;;;2.38;100.00;101309.53;6155611;23;20006;-87
2023/12/06 05:54:59;;;;;;;29.00;21.55;;;;;;;2.41;100.00;101304.34;6154991;23;20387;-89
2023/12/06 05:57:24;;;;;;;29.63;22.70;;;;;;;2.43;100.00;101302.59;6154922;23;20005;-89
2023/12/06 05:59:50;;;;;;;30.30;22.15;;;;;;;2.17;100.00;101251.38;6154865;23;20327;-88
2023/12/06 06:02:15;;;;;;;28.83;22.40;;;;;;;1.95;100.00;101228.88;6128868;23;20005;-88
2023/12/06 06:04:41;;;;;;;30.85;22.52;;;;;;;2.46;100.00;101301.69;6154863;23;20491;-89
2023/12/06 06:07:06;;;;;;;29.30;22.65;;;;;;;1.93;100.00;101217.91;6154934;23;20010;-88
2023/12/06 06:09:35;;;;;;;31.25;23.60;;;;;;;2.40;100.00;101297.59;6155176;23;20002;-88
2023/12/06 06:12:13;;;;;;;29.92;22.20;;;;;;;1.44;100.00;101140.00;6155060;23;20001;-88
2023/12/06 06:14:46;;;;;;;28.73;22.63;;;;;;;1.00;100.00;101068.84;6154998;23;20006;-88
2023/12/06 06:17:11;;;;;;;30.80;22.98;;;;;;;2.42;100.00;101298.38;6148951;23;20022;-89
2023/12/06 06:19:52;;;;;;;29.15;22.08;;;;;;;0.85;100.00;101047.06;6155301;23;20013;-89
2023/12/06 06:22:17;;;;;;;30.80;22.67;;;;;;;1.89;100.00;101216.31;6128172;23;20006;-91
2023/12/06 06:24:49;;;;;;;29.65;22.35;;;;;;;1.01;100.00;101081.53;6154447;23;20261;-88
2023/12/06 06:27:14;;;;;;;32.70;23.13;;;;;;;0.99;100.00;101075.63;6154998;23;20006;-86
2023/12/06 06:30:00;;;;;;;30.50;21.50;;;;;;;2.53;100.00;101329.56;6162200;23;20008;-87
2023/12/06 06:32:25;;;;;;;28.20;21.83;;;;;;;2.53;100.00;101332.13;6155765;23;20010;-88
2023/12/06 06:34:55;;;;;;;29.27;22.20;;;;;;;2.37;100.00;101312.13;6130387;23;20009;-87
2023/12/06 06:37:20;;;;;;;28.10;21.45;;;;;;;2.53;100.00;101337.22;6156364;23;20010;-87
2023/12/06 06:39:46;;;;;;;28.08;21.83;;;;;;;2.54;100.00;101338.06;6156581;23;20413;-87
2023/12/06 06:42:11;;;;;;;29.00;20.15;;;;;;;2.55;100.00;101343.13;6156349;23;20056;-86
2023/12/06 06:44:36;;;;;;;27.70;20.67;;;;;;;2.35;100.00;101312.13;6156187;23;20005;-86
2023/12/06 06:47:02;;;;;;;28.63;19.85;;;;;;;2.56;100.00;101347.38;6156944;23;20006;-85
2023/12/06 06:49:27;;;;;;;27.88;20.10;;;;;;;2.35;100.00;101312.13;6155869;23;20033;-86
2023/12/06 06:51:52;;;;;;;27.33;20.38;;;;;;;2.62;100.00;101358.31;6156680;23;20432;-85
2023/12/06 06:54:18;;;;;;;26.52;20.58;;;;;;;2.35;100.00;101314.66;6130622;23;20037;-85
2023/12/06 06:56:43;;;;;;;27.33;19.80;;;;;;;2.41;100.00;101324.75;6155641;23;20009;-86
2023/12/06 06:59:09;;;;;;;26.98;19.10;;;;;;;2.44;100.00;101328.94;6156606;23;20012;-86
2023/12/06 07:01:35;;;;;;;30.52;21.00;;;;;;;2.66;100.00;101363.31;6156077;23;20005;-86
2023/12/06 07:04:00;;;;;;;27.45;19.92;;;;;;;2.65;100.00;101360.78;6156141;23;20084;-85
2023/12/06 07:06:30;;;;;;;26.70;19.63;;;;;;;2.61;100.00;101351.53;6156426;23;20006;-88
2023/12/06 07:08:55;;;;;;;25.40;18.80;;;;;;;2.40;100.00;101328.16;6155755;23;20084;-89
2023/12/06 07:11:21;;;;;;;29.65;20.67;;;;;;;2.42;100.00;101330.69;6156262;23;20081;-86
2023/12/06 07:13:52;;;;;;;26.85;20.42;;;;;;;2.67;100.00;101364.16;6156217;23;20005;-83
2023/12/06 07:17:05;;;;;;;25.25;19.65;;;;;;;2.69;100.00;101376.00;6126410;23;20006;-82
2023/12/06 07:19:36;;;;;;;27.85;20.17;;;;;;;1.34;100.00;101147.84;6156048;23;20431;-87
2023/12/06 07:22:20;;;;;;;28.77;19.50;;;;;;;2.13;100.00;101282.88;6156449;23;20012;-85
2023/12/06 07:35:28;;;;;;;28.10;19.67;;;;;;;2.50;100.00;101380.63;6149334;23;20040;-84
2023/12/06 07:40:29;;;;;;;31.98;21.58;;;;;;;1.03;100.00;101188.28;6146230;23;20064;-86
2023/12/06 07:45:35;;;;;;;28.05;20.70;;;;;;;1.27;100.00;101225.97;6146027;23;20030;-86
2023/12/06 07:48:17;;;;;;;28.48;21.40;;;;;;;1.55;100.00;101258.56;6126752;23;20010;-86
2023/12/06 07:51:01;;;;;;;29.55;21.63;;;;;;;2.50;100.00;101401.03;6126331;23;20002;-85
2023/12/06 08:03:09;;;;;;;27.95;21.10;;;;;;;2.44;100.00;101410.50;6151932;23;20029;-83
2023/12/06 08:06:45;;;;;;;31.50;20.50;;;;;;;2.46;100.00;101416.41;6143047;23;20017;-90
2023/12/06 08:09:52;;;;;;;28.83;21.02;;;;;;;2.51;100.00;101425.66;6130696;23;20014;-89
2023/12/06 08:12:26;;;;;;;31.67;20.75;;;;;;;1.53;100.00;101260.31;6130242;23;20009;-87
2023/12/06 08:18:18;;;;;;;30.33;21.65;;;;;;;1.97;100.00;101335.84;6134519;23;20026;-90
2023/12/06 08:21:18;;;;;;;31.45;21.73;;;;;;;2.56;100.00;101433.22;6103076;23;20029;-90
2023/12/06 08:24:12;;;;;;;32.63;21.80;;;;;;;2.59;100.00;101438.25;6095583;23;20061;-91
2023/12/06 08:26:43;;;;;;;30.58;21.27;;;;;;;2.62;100.00;101443.28;6108053;23;20014;-92
2023/12/06 08:34:40;;;;;;;29.63;21.33;;;;;;;1.28;100.00;101206.47;6151716;23;20029;-91
2023/12/06 08:43:18;;;;;;;30.02;19.83;;;;;;;1.27;100.00;101182.72;6126330;23;20033;-89
2023/12/06 08:54:40;;;;;;;27.25;19.05;;;;;;;2.84;100.00;101448.75;6155237;23;20048;-85
2023/12/06 09:00:23;;;;;;;25.60;18.75;;;;;;;2.72;100.00;101464.31;6165214;23;20403;-86
2023/12/06 09:05:24;;;;;;;25.80;18.52;;;;;;;1.94;100.00;101376.63;6148300;23;20026;-87
2023/12/06 09:10:41;;;;;;;28.48;19.35;;;;;;;1.32;100.00;101297.16;6150625;23;20034;-88
2023/12/06 09:15:55;;;;;;;31.42;20.52;;;;;;;0.90;100.00;101247.84;6126863;23;20026;-82
2023/12/06 09:21:44;;;;;;;29.23;19.75;;;;;;;2.28;100.00;101466.03;6125596;23;20037;-92
2023/12/06 09:24:21;;;;;;;26.35;18.80;;;;;;;0.91;100.00;101242.75;6126186;23;20010;-91
2023/12/06 09:26:47;;;;;;;30.50;20.40;;;;;;;2.44;100.00;101492.91;6124875;23;20002;-89
2023/12/06 09:29:18;;;;;;;33.03;20.48;;;;;;;0.97;100.00;101242.63;6126793;23;20002;-91
2023/12/06 09:31:44;;;;;;;28.33;19.80;;;;;;;0.93;100.00;101222.38;6124655;23;20018;-86
2023/12/06 09:34:15;;;;;;;27.55;19.10;;;;;;;2.03;100.00;101403.66;6125904;23;20072;-84
2023/12/06 09:36:47;;;;;;;27.70;18.90;;;;;;;1.73;100.00;101350.69;6126364;23;20429;-86
2023/12/06 09:42:27;;;;;;;27.02;18.17;;;;;;;2.79;100.00;101491.41;6125651;23;19932;-88
2023/12/06 09:45:03;;;;;;;24.98;17.13;;;;;;;2.38;100.00;101401.28;6124281;23;20436;-89
2023/12/06 09:47:36;;;;;;;23.77;17.23;;;;;;;2.34;100.00;101376.72;6125997;23;20429;-93
2023/12/06 09:50:09;;;;;;;25.35;16.45;;;;;;;1.96;100.00;101309.53;6125979;23;20014;-89
2023/12/06 09:53:16;;;;;;;23.77;16.42;;;;;;;3.13;100.00;101522.13;6126089;23;20416;-92
2023/12/06 09:55:47;;;;;;;22.38;15.13;;;;;;;2.07;100.00;101360.28;6126019;23;20056;-90
2023/12/06 09:58:15;;;;;;;;;;;;;;;3.07;100.00;101524.84;6126283;23;20006;-93
2023/12/06 10:00:41;;;;;;;25.42;14.93;;;;;;;2.94;100.00;101519.13;6126233;23;19909;-91
2023/12/06 10:03:21;;;;;;;21.05;13.73;;;;;;;2.28;100.00;101407.44;6126759;23;20077;-88
2023/12/06 10:06:18;;;;;;;21.87;14.10;;;;;;;3.06;100.00;101526.56;6130635;23;20033;-91
2023/12/06 10:08:51;;;;;;;19.15;13.32;;;;;;;2.01;100.00;101363.78;6128242;23;20006;-89
2023/12/06 10:49:49;;;;;;;20.58;11.88;;;;;;;4.62;100.00;101525.34;6156901;23;20036;-85
2023/12/06 10:52:24;;;;;;;18.50;11.02;;;;;;;4.62;100.00;101527.91;6156465;23;20080;-93
2023/12/06 11:03:22;;;;;;;17.88;11.05;;;;;;;4.99;100.00;101524.34;6156558;23;20460;-85
2023/12/06 11:05:58;;;;;;;16.80;10.48;;;;;;;3.59;100.00;101296.41;6156082;23;20010;-86
2023/12/06 11:09:20;;;;;;;15.88;10.63;;;;;;;5.08;100.00;101524.06;6149084;23;20439;-88
2023/12/06 11:12:08;;;;;;;15.85;11.20;;;;;;;3.79;100.00;101314.59;6161884;23;20013;-90
2023/12/06 11:15:13;;;;;;;15.43;10.55;;;;;;;5.14;100.00;101531.59;6120099;23;20026;-88
2023/12/06 11:17:45;;;;;;;17.25;11.32;;;;;;;5.07;100.00;101528.34;6130875;23;20021;-85
2023/12/06 11:20:16;;;;;;;19.00;10.40;;;;;;;3.90;100.00;101355.19;6128807;23;20360;-83
2023/12/06 11:22:57;;;;;;;16.15;10.68;;;;;;;3.99;100.00;101385.59;6145989;23;20022;-86
2023/12/06 11:25:27;;;;;;;18.13;10.73;;;;;;;3.34;100.00;101289.41;6125251;23;20014;-85
2023/12/06 11:28:01;;;;;;;18.17;10.65;;;;;;;3.25;100.00;101292.19;6126394;23;20021;-87
2023/12/06 11:31:00;;;;;;;15.48;9.85;;;;;;;3.50;100.00;101325.56;6126898;23;20052;-87
2023/12/06 11:33:31;;;;;;;14.48;11.00;;;;;;;3.25;100.00;101278.59;6126895;23;20433;-84
2023/12/06 11:36:38;;;;;;;14.10;9.88;;;;;;;4.88;100.00;101527.19;6126296;23;20070;-82
2023/12/06 11:39:16;;;;;;;17.73;10.25;;;;;;;4.10;100.00;101367.41;6127172;23;20006;-84
2023/12/06 11:42:05;;;;;;;15.23;10.05;;;;;;;4.44;100.00;101392.91;6126692;23;20416;-83
2023/12/06 11:44:30;;;;;;;16.83;10.02;;;;;;;5.38;100.00;101535.13;6099628;23;20025;-85
2023/12/06 11:46:56;;;;;;;15.93;9.35;;;;;;;5.12;100.00;101472.75;6156016;23;20040;-84
2023/12/06 11:49:28;;;;;;;15.55;10.02;;;;;;;4.08;100.00;101297.63;6155642;23;20001;-83
2023/12/06 11:52:10;;;;;;;14.95;10.20;;;;;;;5.18;100.00;101485.34;6153817;23;20002;-88
2023/12/06 12:01:36;;;;;;;14.30;9.20;;;;;;;4.19;100.00;101401.22;6065851;23;20066;-85
2023/12/06 12:04:34;;;;;;;12.70;9.45;;;;;;;5.05;100.00;101534.41;6065916;23;20011;-85
2023/12/06 12:07:09;;;;;;;12.80;8.90;;;;;;;4.56;100.00;101453.91;6042947;23;20097;-84
2023/12/06 12:09:40;;;;;;;17.58;8.63;;;;;;;4.13;100.00;101377.53;6067233;23;20014;-87
2023/12/06 12:12:10;;;;;;;14.00;9.00;;;;;;;4.69;100.00;101454.41;6066408;23;20039;-87
2023/12/06 12:14:38;;;;;;;16.48;9.20;;;;;;;5.37;100.00;101543.69;6066101;23;20006;-88
2023/12/06 12:17:07;;;;;;;14.35;8.25;;;;;;;4.08;100.00;101305.28;6065418;23;20386;-82
2023/12/06 12:19:32;;;;;;;13.40;8.25;;;;;;;5.70;100.00;101544.38;6064995;23;20030;-87
2023/12/06 12:22:29;;;;;;;16.30;8.70;;;;;;;5.21;100.00;101443.47;6065669;23;20011;-85
2023/12/06 12:25:09;;;;;;;14.15;8.52;;;;;;;5.41;100.00;101459.06;6065425;23;20015;-85
2023/12/06 12:30:17;;;;;;;14.40;8.35;;;;;;;4.81;100.00;101364.50;6185095;23;20021;-85
2023/12/06 12:33:03;;;;;;;14.40;8.38;;;;;;;4.36;100.00;101297.66;6177298;23;20036;-90
2023/12/06 12:35:38;;;;;;;14.10;8.23;;;;;;;4.34;100.00;101278.97;6157571;23;20347;-91
2023/12/06 12:38:04;;;;;;;13.23;8.25;;;;;;;4.92;100.00;101361.59;6157010;23;20004;-89
2023/12/06 12:40:32;;;;;;;13.10;8.00;;;;;;;5.66;100.00;101464.22;6155592;23;20006;-91
2023/12/06 12:43:07;;;;;;;12.55;8.38;;;;;;;4.94;100.00;101331.69;6157299;23;20008;-84
2023/12/06 12:45:35;;;;;;;11.00;7.30;;;;;;;5.90;100.00;101464.28;6155959;23;20088;-86
2023/12/06 12:48:00;;;;;;;11.80;7.53;;;;;;;6.42;100.00;101535.22;6155160;23;20475;-85
2023/12/06 12:50:37;;;;;;;13.80;7.30;;;;;;;5.90;100.00;101444.69;6129115;23;20001;-85
2023/12/06 12:53:18;;;;;;;11.85;6.78;;;;;;;5.11;100.00;101314.06;6155343;23;20006;-88
2023/12/06 12:56:07;;;;;;;14.25;7.38;;;;;;;6.46;100.00;101547.03;6129115;23;20016;-89
2023/12/06 12:58:39;;;;;;;11.15;7.00;;;;;;;5.59;100.00;101429.44;6129551;23;20005;-88
2023/12/06 13:01:13;;;;;;;;;;;;;;;6.33;100.00;101551.75;6155926;23;20076;-92
2023/12/06 13:07:18;;;;;;;10.82;6.85;;;;;;;5.88;100.00;101513.06;6155079;23;20013;-87
2023/12/06 13:12:29;;;;;;;12.82;7.22;;;;;;;5.60;100.00;101471.25;6111653;23;20010;-87
2023/12/06 13:15:10;;;;;;;11.30;7.30;;;;;;;6.07;100.00;101561.19;6155149;23;20009;-88
2023/12/06 13:25:23;;;;;;;8.18;5.00;;;;;;;3.36;100.00;101374.44;6142543;23;20397;-85
2023/12/06 13:28:06;;;;;;;8.15;4.97;;;;;;;2.76;100.00;101369.06;6100577;23;20060;-89
2023/12/06 13:30:35;;;;;;;7.85;4.70;;;;;;;3.53;100.00;101550.19;6125167;23;20009;-89
2023/12/06 13:33:00;;;;;;;7.28;4.32;;;;;;;2.84;100.00;101484.47;6125741;23;20336;-87
2023/12/06 13:35:32;;;;;;;9.75;5.15;;;;;;;2.01;100.00;101348.50;6125035;23;20006;-84
2023/12/06 13:37:58;;;;;;;10.07;5.70;;;;;;;2.93;100.00;101486.84;6125477;23;20017;-84
2023/12/06 13:40:38;;;;;;;9.15;5.30;;;;;;;1.98;100.00;101330.72;6125488;23;20080;-85
2023/12/06 13:43:04;;;;;;;7.95;5.32;;;;;;;2.07;100.00;101354.34;6127020;23;20002;-90
2023/12/06 13:46:18;;;;;;;8.55;5.28;;;;;;;1.94;100.00;101339.28;6101150;23;20010;-88
2023/12/06 13:48:55;;;;;;;8.65;5.53;;;;;;;2.04;100.00;101331.47;6099057;23;20017;-86
2023/12/06 13:51:31;;;;;;;8.25;5.63;;;;;;;2.29;100.00;101379.38;6127770;23;20006;-85
2023/12/06 13:54:34;;;;;;;11.10;6.15;;;;;;;3.55;100.00;101573.19;6127454;23;20045;-83
2023/12/06 14:00:06;;;;;;;9.98;6.03;;;;;;;3.41;100.00;101571.72;6157692;23;20033;-88
2023/12/06 14:02:59;;;;;;;11.38;6.43;;;;;;;3.41;100.00;101561.53;6157248;23;20014;-90
2023/12/06 14:10:34;;;;;;;9.98;6.72;;;;;;;1.82;100.00;101320.84;6155820;23;20416;-91
2023/12/06 14:13:03;;;;;;;9.90;6.47;;;;;;;2.45;100.00;101432.56;6131198;23;20013;-89
2023/12/06 14:15:30;;;;;;;9.82;6.32;;;;;;;1.81;100.00;101358.22;6156599;23;20016;-86
2023/12/06 14:17:57;;;;;;;9.40;5.88;;;;;;;1.64;100.00;101339.84;6135046;23;20009;-87
2023/12/06 14:20:26;;;;;;;9.45;6.15;;;;;;;1.65;100.00;101359.34;6159009;23;20025;-83
2023/12/06 14:23:13;;;;;;;8.20;5.85;;;;;;;2.91;100.00;101585.53;6156396;23;20048;-88
2023/12/06 14:25:47;;;;;;;7.85;5.72;;;;;;;1.77;100.00;101410.06;6123864;23;20014;-86
2023/12/06 14:30:57;;;;;;;8.57;5.82;;;;;;;1.26;100.00;101346.41;6156679;23;20028;-89
2023/12/06 14:33:28;;;;;;;9.18;5.80;;;;;;;1.08;100.00;101324.69;6130912;23;20367;-87
2023/12/06 14:35:59;;;;;;;8.68;5.90;;;;;;;2.01;100.00;101488.59;6156461;23;20033;-83
2023/12/06 14:38:35;;;;;;;9.38;6.65;;;;;;;1.13;100.00;101353.41;6156284;23;20029;-86
2023/12/06 14:41:00;;;;;;;9.55;6.95;;;;;;;1.21;100.00;101371.13;6156207;23;20006;-86
2023/12/06 14:43:26;;;;;;;11.20;6.88;;;;;;;1.90;100.00;101508.31;6156783;23;20028;-85
2023/12/06 14:46:07;;;;;;;9.25;5.75;;;;;;;1.64;100.00;101474.75;6130530;23;20009;-86
2023/12/06 14:49:21;;;;;;;9.07;6.05;;;;;;;2.38;100.00;101612.00;6142706;23;20028;-90
2023/12/06 14:51:52;;;;;;;8.82;5.75;;;;;;;1.20;100.00;101439.81;6037008;23;20154;-88
2023/12/06 14:54:18;;;;;;;10.85;6.15;;;;;;;0.85;100.00;101380.13;6037534;23;20015;-89
2023/12/06 14:57:17;;;;;;;10.07;6.50;;;;;;;2.27;100.00;101622.38;6037834;23;20485;-89